sensor_id;sensor_type;location;lat;lon;timestamp;P1;durP1;ratioP1;P2;durP2;ratioP2
9524;SDS011;15940;48.734;9.112;2023-08-24T00:00:21;5.67;;;4.17;;
9524;SDS011;15940;48.734;9.112;2023-08-24T00:02:48;4.90;;;4.37;;
9524;SDS011;15940;48.734;9.112;2023-08-24T00:05:15;4.83;;;4.43;;
9524;SDS011;15940;48.734;9.112;2023-08-24T00:07:42;5.40;;;3.70;;
9524;SDS011;15940;48.734;9.112;2023-08-24T00:10:09;7.40;;;4.10;;
9524;SDS011;15940;48.734;9.112;2023-08-24T00:12:37;4.83;;;4.43;;
9524;SDS011;15940;48.734;9.112;2023-08-24T00:15:04;6.97;;;4.57;;
9524;SDS011;15940;48.734;9.112;2023-08-24T00:17:35;5.80;;;4.70;;
9524;SDS011;15940;48.734;9.112;2023-08-24T00:20:03;7.43;;;4.90;;
9524;SDS011;15940;48.734;9.112;2023-08-24T00:22:35;5.53;;;4.30;;
9524;SDS011;15940;48.734;9.112;2023-08-24T00:25:04;6.50;;;4.20;;
9524;SDS011;15940;48.734;9.112;2023-08-24T00:27:32;6.57;;;4.43;;
9524;SDS011;15940;48.734;9.112;2023-08-24T00:30:01;6.10;;;4.60;;
9524;SDS011;15940;48.734;9.112;2023-08-24T00:32:31;5.13;;;4.63;;
9524;SDS011;15940;48.734;9.112;2023-08-24T00:34:59;5.30;;;4.80;;
9524;SDS011;15940;48.734;9.112;2023-08-24T00:37:27;4.97;;;4.50;;
9524;SDS011;15940;48.734;9.112;2023-08-24T00:39:54;5.33;;;4.60;;
9524;SDS011;15940;48.734;9.112;2023-08-24T00:42:21;5.43;;;4.77;;
9524;SDS011;15940;48.734;9.112;2023-08-24T00:44:48;4.73;;;4.30;;
9524;SDS011;15940;48.734;9.112;2023-08-24T00:47:17;4.90;;;4.40;;
9524;SDS011;15940;48.734;9.112;2023-08-24T00:49:44;6.03;;;4.67;;
9524;SDS011;15940;48.734;9.112;2023-08-24T00:52:11;5.23;;;4.73;;
9524;SDS011;15940;48.734;9.112;2023-08-24T00:54:39;5.80;;;4.33;;
9524;SDS011;15940;48.734;9.112;2023-08-24T00:57:07;5.07;;;4.63;;
9524;SDS011;15940;48.734;9.112;2023-08-24T00:59:34;5.40;;;4.93;;
9524;SDS011;15940;48.734;9.112;2023-08-24T01:02:01;5.27;;;4.50;;
9524;SDS011;15940;48.734;9.112;2023-08-24T01:04:30;6.47;;;5.07;;
9524;SDS011;15940;48.734;9.112;2023-08-24T01:06:57;6.00;;;4.40;;
9524;SDS011;15940;48.734;9.112;2023-08-24T01:09:24;5.47;;;4.80;;
9524;SDS011;15940;48.734;9.112;2023-08-24T01:11:54;7.83;;;5.13;;
9524;SDS011;15940;48.734;9.112;2023-08-24T01:14:30;5.37;;;4.43;;
9524;SDS011;15940;48.734;9.112;2023-08-24T01:17:18;6.50;;;4.83;;
9524;SDS011;15940;48.734;9.112;2023-08-24T01:19:53;8.57;;;5.17;;
9524;SDS011;15940;48.734;9.112;2023-08-24T01:22:23;7.33;;;5.10;;
9524;SDS011;15940;48.734;9.112;2023-08-24T01:25:03;10.93;;;5.00;;
9524;SDS011;15940;48.734;9.112;2023-08-24T01:27:38;5.60;;;5.10;;
9524;SDS011;15940;48.734;9.112;2023-08-24T01:30:07;8.33;;;5.33;;
9524;SDS011;15940;48.734;9.112;2023-08-24T01:32:35;5.90;;;5.40;;
9524;SDS011;15940;48.734;9.112;2023-08-24T01:35:04;7.70;;;5.00;;
9524;SDS011;15940;48.734;9.112;2023-08-24T01:37:34;7.03;;;5.10;;
9524;SDS011;15940;48.734;9.112;2023-08-24T01:40:03;6.60;;;5.30;;
9524;SDS011;15940;48.734;9.112;2023-08-24T01:42:34;7.47;;;4.80;;
9524;SDS011;15940;48.734;9.112;2023-08-24T01:45:09;5.40;;;4.90;;
9524;SDS011;15940;48.734;9.112;2023-08-24T01:47:38;6.10;;;5.33;;
9524;SDS011;15940;48.734;9.112;2023-08-24T01:50:07;6.90;;;5.47;;
9524;SDS011;15940;48.734;9.112;2023-08-24T01:52:36;5.80;;;5.10;;
9524;SDS011;15940;48.734;9.112;2023-08-24T01:55:03;5.30;;;4.57;;
9524;SDS011;15940;48.734;9.112;2023-08-24T01:57:31;5.80;;;4.93;;
9524;SDS011;15940;48.734;9.112;2023-08-24T01:59:58;5.43;;;4.93;;
9524;SDS011;15940;48.734;9.112;2023-08-24T02:02:26;6.57;;;4.97;;
9524;SDS011;15940;48.734;9.112;2023-08-24T02:04:53;8.87;;;5.57;;
9524;SDS011;15940;48.734;9.112;2023-08-24T02:07:20;8.27;;;4.80;;
9524;SDS011;15940;48.734;9.112;2023-08-24T02:09:47;7.40;;;5.57;;
9524;SDS011;15940;48.734;9.112;2023-08-24T02:12:14;5.60;;;5.03;;
9524;SDS011;15940;48.734;9.112;2023-08-24T02:14:41;8.43;;;5.30;;
9524;SDS011;15940;48.734;9.112;2023-08-24T02:17:08;6.43;;;5.17;;
9524;SDS011;15940;48.734;9.112;2023-08-24T02:19:36;5.47;;;4.97;;
9524;SDS011;15940;48.734;9.112;2023-08-24T02:22:04;6.37;;;4.73;;
9524;SDS011;15940;48.734;9.112;2023-08-24T02:24:31;6.63;;;5.30;;
9524;SDS011;15940;48.734;9.112;2023-08-24T02:26:57;6.30;;;5.70;;
9524;SDS011;15940;48.734;9.112;2023-08-24T02:29:24;8.60;;;6.00;;
9524;SDS011;15940;48.734;9.112;2023-08-24T02:31:52;6.90;;;5.97;;
9524;SDS011;15940;48.734;9.112;2023-08-24T02:34:19;9.17;;;5.63;;
9524;SDS011;15940;48.734;9.112;2023-08-24T02:36:48;6.23;;;5.20;;
9524;SDS011;15940;48.734;9.112;2023-08-24T02:39:14;5.60;;;5.00;;
9524;SDS011;15940;48.734;9.112;2023-08-24T02:41:41;7.13;;;5.20;;
9524;SDS011;15940;48.734;9.112;2023-08-24T02:44:08;7.73;;;5.73;;
9524;SDS011;15940;48.734;9.112;2023-08-24T02:46:35;6.93;;;5.23;;
9524;SDS011;15940;48.734;9.112;2023-08-24T02:49:02;7.50;;;5.90;;
9524;SDS011;15940;48.734;9.112;2023-08-24T02:51:29;6.77;;;5.47;;
9524;SDS011;15940;48.734;9.112;2023-08-24T02:53:58;6.13;;;5.30;;
9524;SDS011;15940;48.734;9.112;2023-08-24T02:56:25;6.30;;;5.10;;
9524;SDS011;15940;48.734;9.112;2023-08-24T02:58:52;5.50;;;4.90;;
9524;SDS011;15940;48.734;9.112;2023-08-24T03:01:19;8.33;;;5.30;;
9524;SDS011;15940;48.734;9.112;2023-08-24T03:03:46;5.53;;;5.00;;
9524;SDS011;15940;48.734;9.112;2023-08-24T03:06:13;5.27;;;4.87;;
9524;SDS011;15940;48.734;9.112;2023-08-24T03:08:40;5.73;;;4.90;;
9524;SDS011;15940;48.734;9.112;2023-08-24T03:11:08;6.60;;;4.90;;
9524;SDS011;15940;48.734;9.112;2023-08-24T03:13:35;6.37;;;5.20;;
9524;SDS011;15940;48.734;9.112;2023-08-24T03:16:04;6.47;;;5.43;;
9524;SDS011;15940;48.734;9.112;2023-08-24T03:18:32;6.10;;;5.50;;
9524;SDS011;15940;48.734;9.112;2023-08-24T03:20:59;5.37;;;4.87;;
9524;SDS011;15940;48.734;9.112;2023-08-24T03:23:27;6.70;;;5.47;;
9524;SDS011;15940;48.734;9.112;2023-08-24T03:25:54;6.33;;;5.63;;
9524;SDS011;15940;48.734;9.112;2023-08-24T03:28:23;6.27;;;5.60;;
9524;SDS011;15940;48.734;9.112;2023-08-24T03:30:51;5.60;;;5.10;;
9524;SDS011;15940;48.734;9.112;2023-08-24T03:33:20;7.00;;;5.30;;
9524;SDS011;15940;48.734;9.112;2023-08-24T03:35:47;7.30;;;6.20;;
9524;SDS011;15940;48.734;9.112;2023-08-24T03:38:14;7.30;;;5.27;;
9524;SDS011;15940;48.734;9.112;2023-08-24T03:40:41;6.70;;;5.40;;
9524;SDS011;15940;48.734;9.112;2023-08-24T03:43:08;8.40;;;5.40;;
9524;SDS011;15940;48.734;9.112;2023-08-24T03:45:37;7.17;;;5.50;;
9524;SDS011;15940;48.734;9.112;2023-08-24T03:48:04;9.93;;;6.10;;
9524;SDS011;15940;48.734;9.112;2023-08-24T03:50:31;5.87;;;5.37;;
9524;SDS011;15940;48.734;9.112;2023-08-24T03:52:58;6.23;;;5.70;;
9524;SDS011;15940;48.734;9.112;2023-08-24T03:55:25;6.00;;;5.50;;
9524;SDS011;15940;48.734;9.112;2023-08-24T03:57:52;6.80;;;5.23;;
9524;SDS011;15940;48.734;9.112;2023-08-24T04:00:19;7.97;;;5.33;;
9524;SDS011;15940;48.734;9.112;2023-08-24T04:02:47;7.17;;;5.80;;
9524;SDS011;15940;48.734;9.112;2023-08-24T04:05:14;7.53;;;5.63;;
9524;SDS011;15940;48.734;9.112;2023-08-24T04:07:41;5.90;;;5.40;;
9524;SDS011;15940;48.734;9.112;2023-08-24T04:10:08;6.13;;;5.53;;
9524;SDS011;15940;48.734;9.112;2023-08-24T04:12:35;7.40;;;5.60;;
9524;SDS011;15940;48.734;9.112;2023-08-24T04:15:03;6.80;;;5.60;;
9524;SDS011;15940;48.734;9.112;2023-08-24T04:17:31;5.70;;;5.20;;
9524;SDS011;15940;48.734;9.112;2023-08-24T04:19:59;6.40;;;5.30;;
9524;SDS011;15940;48.734;9.112;2023-08-24T04:22:26;6.70;;;5.90;;
9524;SDS011;15940;48.734;9.112;2023-08-24T04:24:53;7.20;;;5.80;;
9524;SDS011;15940;48.734;9.112;2023-08-24T04:27:20;7.33;;;6.40;;
9524;SDS011;15940;48.734;9.112;2023-08-24T04:29:47;6.00;;;5.50;;
9524;SDS011;15940;48.734;9.112;2023-08-24T04:32:14;6.07;;;5.50;;
9524;SDS011;15940;48.734;9.112;2023-08-24T04:34:41;9.27;;;5.73;;
9524;SDS011;15940;48.734;9.112;2023-08-24T04:37:10;7.47;;;5.83;;
9524;SDS011;15940;48.734;9.112;2023-08-24T04:39:37;7.97;;;5.90;;
9524;SDS011;15940;48.734;9.112;2023-08-24T04:42:04;8.37;;;6.00;;
9524;SDS011;15940;48.734;9.112;2023-08-24T04:44:32;6.43;;;5.60;;
9524;SDS011;15940;48.734;9.112;2023-08-24T04:46:59;6.43;;;5.83;;
9524;SDS011;15940;48.734;9.112;2023-08-24T04:49:26;8.60;;;5.80;;
9524;SDS011;15940;48.734;9.112;2023-08-24T04:51:54;11.13;;;6.10;;
9524;SDS011;15940;48.734;9.112;2023-08-24T04:54:22;6.63;;;5.73;;
9524;SDS011;15940;48.734;9.112;2023-08-24T04:56:49;9.70;;;6.33;;
9524;SDS011;15940;48.734;9.112;2023-08-24T04:59:16;6.00;;;5.40;;
9524;SDS011;15940;48.734;9.112;2023-08-24T05:01:43;9.93;;;6.10;;
9524;SDS011;15940;48.734;9.112;2023-08-24T05:04:10;6.70;;;5.63;;
9524;SDS011;15940;48.734;9.112;2023-08-24T05:06:37;6.20;;;5.60;;
9524;SDS011;15940;48.734;9.112;2023-08-24T05:09:03;7.03;;;6.33;;
9524;SDS011;15940;48.734;9.112;2023-08-24T05:11:32;6.13;;;5.63;;
9524;SDS011;15940;48.734;9.112;2023-08-24T05:13:59;8.77;;;5.83;;
9524;SDS011;15940;48.734;9.112;2023-08-24T05:16:26;6.73;;;6.10;;
9524;SDS011;15940;48.734;9.112;2023-08-24T05:18:54;6.43;;;5.80;;
9524;SDS011;15940;48.734;9.112;2023-08-24T05:21:20;5.80;;;5.30;;
9524;SDS011;15940;48.734;9.112;2023-08-24T05:23:47;8.90;;;6.70;;
9524;SDS011;15940;48.734;9.112;2023-08-24T05:26:14;6.77;;;5.70;;
9524;SDS011;15940;48.734;9.112;2023-08-24T05:28:48;10.27;;;5.47;;
9524;SDS011;15940;48.734;9.112;2023-08-24T05:31:16;9.53;;;6.20;;
9524;SDS011;15940;48.734;9.112;2023-08-24T05:33:43;7.33;;;6.10;;
9524;SDS011;15940;48.734;9.112;2023-08-24T05:36:10;14.97;;;6.03;;
9524;SDS011;15940;48.734;9.112;2023-08-24T05:38:37;11.17;;;5.73;;
9524;SDS011;15940;48.734;9.112;2023-08-24T05:41:09;6.67;;;4.70;;
9524;SDS011;15940;48.734;9.112;2023-08-24T05:43:36;10.00;;;5.10;;
9524;SDS011;15940;48.734;9.112;2023-08-24T05:46:05;7.53;;;5.60;;
9524;SDS011;15940;48.734;9.112;2023-08-24T05:48:32;7.20;;;5.10;;
9524;SDS011;15940;48.734;9.112;2023-08-24T05:50:59;12.33;;;5.40;;
9524;SDS011;15940;48.734;9.112;2023-08-24T05:53:25;8.23;;;5.53;;
9524;SDS011;15940;48.734;9.112;2023-08-24T05:55:56;7.00;;;5.80;;
9524;SDS011;15940;48.734;9.112;2023-08-24T05:58:24;10.33;;;5.73;;
9524;SDS011;15940;48.734;9.112;2023-08-24T06:00:55;10.97;;;5.60;;
9524;SDS011;15940;48.734;9.112;2023-08-24T06:03:25;8.10;;;5.47;;
9524;SDS011;15940;48.734;9.112;2023-08-24T06:05:52;6.20;;;5.60;;
9524;SDS011;15940;48.734;9.112;2023-08-24T06:08:19;10.40;;;6.03;;
9524;SDS011;15940;48.734;9.112;2023-08-24T06:10:47;8.37;;;5.80;;
9524;SDS011;15940;48.734;9.112;2023-08-24T06:13:14;7.90;;;5.30;;
9524;SDS011;15940;48.734;9.112;2023-08-24T06:15:41;6.37;;;5.20;;
9524;SDS011;15940;48.734;9.112;2023-08-24T06:18:08;6.37;;;5.70;;
9524;SDS011;15940;48.734;9.112;2023-08-24T06:20:37;6.23;;;5.17;;
9524;SDS011;15940;48.734;9.112;2023-08-24T06:23:04;10.47;;;5.23;;
9524;SDS011;15940;48.734;9.112;2023-08-24T06:25:32;5.10;;;4.63;;
9524;SDS011;15940;48.734;9.112;2023-08-24T06:27:59;6.20;;;5.20;;
9524;SDS011;15940;48.734;9.112;2023-08-24T06:30:29;6.07;;;4.73;;
9524;SDS011;15940;48.734;9.112;2023-08-24T06:32:58;6.17;;;4.97;;
9524;SDS011;15940;48.734;9.112;2023-08-24T06:35:24;7.53;;;4.90;;
9524;SDS011;15940;48.734;9.112;2023-08-24T06:37:53;8.43;;;4.87;;
9524;SDS011;15940;48.734;9.112;2023-08-24T06:40:20;6.20;;;4.93;;
9524;SDS011;15940;48.734;9.112;2023-08-24T06:42:47;5.73;;;4.33;;
9524;SDS011;15940;48.734;9.112;2023-08-24T06:45:13;8.17;;;5.03;;
9524;SDS011;15940;48.734;9.112;2023-08-24T06:47:42;6.27;;;4.47;;
9524;SDS011;15940;48.734;9.112;2023-08-24T06:50:09;8.67;;;4.87;;
9524;SDS011;15940;48.734;9.112;2023-08-24T06:52:36;7.33;;;4.47;;
9524;SDS011;15940;48.734;9.112;2023-08-24T06:55:05;6.07;;;4.70;;
9524;SDS011;15940;48.734;9.112;2023-08-24T06:57:34;6.27;;;4.70;;
9524;SDS011;15940;48.734;9.112;2023-08-24T07:00:01;9.17;;;4.77;;
9524;SDS011;15940;48.734;9.112;2023-08-24T07:02:32;6.90;;;4.47;;
9524;SDS011;15940;48.734;9.112;2023-08-24T07:04:59;9.80;;;4.60;;
9524;SDS011;15940;48.734;9.112;2023-08-24T07:07:26;5.33;;;4.40;;
9524;SDS011;15940;48.734;9.112;2023-08-24T07:09:53;8.10;;;4.37;;
9524;SDS011;15940;48.734;9.112;2023-08-24T07:12:22;5.73;;;4.33;;
9524;SDS011;15940;48.734;9.112;2023-08-24T07:14:48;4.57;;;4.00;;
9524;SDS011;15940;48.734;9.112;2023-08-24T07:17:15;6.43;;;4.73;;
9524;SDS011;15940;48.734;9.112;2023-08-24T07:19:43;4.73;;;4.10;;
9524;SDS011;15940;48.734;9.112;2023-08-24T07:22:10;4.47;;;4.07;;
9524;SDS011;15940;48.734;9.112;2023-08-24T07:24:36;5.30;;;4.33;;
9524;SDS011;15940;48.734;9.112;2023-08-24T07:27:04;6.97;;;4.73;;
9524;SDS011;15940;48.734;9.112;2023-08-24T07:29:32;7.10;;;4.13;;
9524;SDS011;15940;48.734;9.112;2023-08-24T07:31:59;5.43;;;4.10;;
9524;SDS011;15940;48.734;9.112;2023-08-24T07:34:26;4.93;;;4.13;;
9524;SDS011;15940;48.734;9.112;2023-08-24T07:36:54;6.53;;;4.00;;
9524;SDS011;15940;48.734;9.112;2023-08-24T07:39:22;6.60;;;3.93;;
9524;SDS011;15940;48.734;9.112;2023-08-24T07:41:48;6.60;;;4.43;;
9524;SDS011;15940;48.734;9.112;2023-08-24T07:44:15;7.47;;;4.60;;
9524;SDS011;15940;48.734;9.112;2023-08-24T07:46:44;5.27;;;3.70;;
9524;SDS011;15940;48.734;9.112;2023-08-24T07:49:11;5.77;;;4.50;;
9524;SDS011;15940;48.734;9.112;2023-08-24T07:51:38;6.77;;;4.30;;
9524;SDS011;15940;48.734;9.112;2023-08-24T07:54:05;7.83;;;4.20;;
9524;SDS011;15940;48.734;9.112;2023-08-24T07:56:32;4.60;;;3.80;;
9524;SDS011;15940;48.734;9.112;2023-08-24T07:58:59;9.37;;;3.77;;
9524;SDS011;15940;48.734;9.112;2023-08-24T08:01:26;5.27;;;4.00;;
9524;SDS011;15940;48.734;9.112;2023-08-24T08:03:55;8.60;;;4.20;;
9524;SDS011;15940;48.734;9.112;2023-08-24T08:06:22;6.23;;;3.93;;
9524;SDS011;15940;48.734;9.112;2023-08-24T08:08:49;4.93;;;4.20;;
9524;SDS011;15940;48.734;9.112;2023-08-24T08:11:16;4.87;;;4.10;;
9524;SDS011;15940;48.734;9.112;2023-08-24T08:13:44;11.67;;;4.60;;
9524;SDS011;15940;48.734;9.112;2023-08-24T08:16:11;5.40;;;4.10;;
9524;SDS011;15940;48.734;9.112;2023-08-24T08:18:38;5.23;;;4.73;;
9524;SDS011;15940;48.734;9.112;2023-08-24T08:21:09;7.07;;;4.60;;
9524;SDS011;15940;48.734;9.112;2023-08-24T08:23:42;7.37;;;4.53;;
9524;SDS011;15940;48.734;9.112;2023-08-24T08:26:10;9.03;;;4.90;;
9524;SDS011;15940;48.734;9.112;2023-08-24T08:28:38;9.20;;;4.83;;
9524;SDS011;15940;48.734;9.112;2023-08-24T08:31:05;7.93;;;4.67;;
9524;SDS011;15940;48.734;9.112;2023-08-24T08:33:32;11.13;;;5.33;;
9524;SDS011;15940;48.734;9.112;2023-08-24T08:35:59;8.83;;;5.20;;
9524;SDS011;15940;48.734;9.112;2023-08-24T08:38:27;7.20;;;4.23;;
9524;SDS011;15940;48.734;9.112;2023-08-24T08:40:56;9.00;;;4.00;;
9524;SDS011;15940;48.734;9.112;2023-08-24T08:43:28;10.07;;;4.33;;
9524;SDS011;15940;48.734;9.112;2023-08-24T08:45:56;9.63;;;4.53;;
9524;SDS011;15940;48.734;9.112;2023-08-24T08:48:25;8.77;;;4.70;;
9524;SDS011;15940;48.734;9.112;2023-08-24T08:50:54;5.27;;;4.23;;
9524;SDS011;15940;48.734;9.112;2023-08-24T08:53:22;11.47;;;4.50;;
9524;SDS011;15940;48.734;9.112;2023-08-24T08:55:51;13.37;;;4.67;;
9524;SDS011;15940;48.734;9.112;2023-08-24T08:58:19;6.73;;;4.50;;
9524;SDS011;15940;48.734;9.112;2023-08-24T09:00:47;9.80;;;5.10;;
9524;SDS011;15940;48.734;9.112;2023-08-24T09:03:16;5.73;;;4.57;;
9524;SDS011;15940;48.734;9.112;2023-08-24T09:05:44;7.10;;;4.30;;
9524;SDS011;15940;48.734;9.112;2023-08-24T09:08:13;6.60;;;4.50;;
9524;SDS011;15940;48.734;9.112;2023-08-24T09:10:42;8.73;;;4.30;;
9524;SDS011;15940;48.734;9.112;2023-08-24T09:13:10;8.20;;;4.67;;
9524;SDS011;15940;48.734;9.112;2023-08-24T09:15:37;6.47;;;4.50;;
9524;SDS011;15940;48.734;9.112;2023-08-24T09:18:04;10.33;;;4.50;;
9524;SDS011;15940;48.734;9.112;2023-08-24T09:20:31;8.50;;;4.03;;
9524;SDS011;15940;48.734;9.112;2023-08-24T09:23:00;7.20;;;4.27;;
9524;SDS011;15940;48.734;9.112;2023-08-24T09:25:27;6.77;;;4.00;;
9524;SDS011;15940;48.734;9.112;2023-08-24T09:27:57;9.03;;;4.27;;
9524;SDS011;15940;48.734;9.112;2023-08-24T09:30:30;6.00;;;3.70;;
9524;SDS011;15940;48.734;9.112;2023-08-24T09:33:00;6.23;;;4.17;;
9524;SDS011;15940;48.734;9.112;2023-08-24T09:35:29;8.77;;;4.50;;
9524;SDS011;15940;48.734;9.112;2023-08-24T09:38:15;6.73;;;4.17;;
9524;SDS011;15940;48.734;9.112;2023-08-24T09:40:44;5.60;;;3.73;;
9524;SDS011;15940;48.734;9.112;2023-08-24T09:43:13;6.03;;;3.70;;
9524;SDS011;15940;48.734;9.112;2023-08-24T09:45:48;8.13;;;4.50;;
9524;SDS011;15940;48.734;9.112;2023-08-24T09:48:16;5.83;;;4.73;;
9524;SDS011;15940;48.734;9.112;2023-08-24T09:50:44;5.37;;;4.23;;
9524;SDS011;15940;48.734;9.112;2023-08-24T09:53:13;6.57;;;4.20;;
9524;SDS011;15940;48.734;9.112;2023-08-24T09:55:53;9.27;;;4.30;;
9524;SDS011;15940;48.734;9.112;2023-08-24T09:58:26;6.57;;;4.30;;
9524;SDS011;15940;48.734;9.112;2023-08-24T10:00:56;6.97;;;4.00;;
9524;SDS011;15940;48.734;9.112;2023-08-24T10:03:24;6.33;;;4.10;;
9524;SDS011;15940;48.734;9.112;2023-08-24T10:05:52;7.43;;;4.40;;
9524;SDS011;15940;48.734;9.112;2023-08-24T10:08:24;5.93;;;3.83;;
9524;SDS011;15940;48.734;9.112;2023-08-24T10:10:55;7.77;;;4.23;;
9524;SDS011;15940;48.734;9.112;2023-08-24T10:13:27;7.87;;;4.20;;
9524;SDS011;15940;48.734;9.112;2023-08-24T10:16:06;4.50;;;4.10;;
9524;SDS011;15940;48.734;9.112;2023-08-24T10:18:35;7.77;;;4.07;;
9524;SDS011;15940;48.734;9.112;2023-08-24T10:21:03;6.13;;;4.20;;
9524;SDS011;15940;48.734;9.112;2023-08-24T10:23:30;6.30;;;4.17;;
9524;SDS011;15940;48.734;9.112;2023-08-24T10:26:00;6.53;;;4.20;;
9524;SDS011;15940;48.734;9.112;2023-08-24T10:28:29;5.97;;;4.33;;
9524;SDS011;15940;48.734;9.112;2023-08-24T10:30:58;5.90;;;4.07;;
9524;SDS011;15940;48.734;9.112;2023-08-24T10:33:28;7.60;;;4.73;;
9524;SDS011;15940;48.734;9.112;2023-08-24T10:35:56;6.53;;;4.13;;
9524;SDS011;15940;48.734;9.112;2023-08-24T10:38:24;5.90;;;4.13;;
9524;SDS011;15940;48.734;9.112;2023-08-24T10:40:53;5.67;;;4.23;;
9524;SDS011;15940;48.734;9.112;2023-08-24T10:43:21;9.60;;;4.83;;
9524;SDS011;15940;48.734;9.112;2023-08-24T10:45:55;8.40;;;4.63;;
9524;SDS011;15940;48.734;9.112;2023-08-24T10:48:25;10.40;;;4.70;;
9524;SDS011;15940;48.734;9.112;2023-08-24T10:53:47;5.87;;;4.60;;
9524;SDS011;15940;48.734;9.112;2023-08-24T10:56:18;9.40;;;4.87;;
9524;SDS011;15940;48.734;9.112;2023-08-24T10:58:47;8.40;;;4.57;;
9524;SDS011;15940;48.734;9.112;2023-08-24T11:01:34;7.47;;;5.00;;
9524;SDS011;15940;48.734;9.112;2023-08-24T11:04:05;8.33;;;4.60;;
9524;SDS011;15940;48.734;9.112;2023-08-24T11:06:50;5.97;;;4.73;;
9524;SDS011;15940;48.734;9.112;2023-08-24T11:09:18;7.03;;;4.87;;
9524;SDS011;15940;48.734;9.112;2023-08-24T11:11:55;8.43;;;4.73;;
9524;SDS011;15940;48.734;9.112;2023-08-24T11:14:23;10.50;;;5.27;;
9524;SDS011;15940;48.734;9.112;2023-08-24T11:16:51;7.90;;;5.30;;
9524;SDS011;15940;48.734;9.112;2023-08-24T11:19:19;7.07;;;4.93;;
9524;SDS011;15940;48.734;9.112;2023-08-24T11:21:48;6.20;;;5.37;;
9524;SDS011;15940;48.734;9.112;2023-08-24T11:24:15;7.83;;;4.80;;
9524;SDS011;15940;48.734;9.112;2023-08-24T11:26:43;10.30;;;4.87;;
9524;SDS011;15940;48.734;9.112;2023-08-24T11:29:11;6.43;;;4.87;;
9524;SDS011;15940;48.734;9.112;2023-08-24T11:31:40;7.00;;;5.17;;
9524;SDS011;15940;48.734;9.112;2023-08-24T11:34:08;10.20;;;5.17;;
9524;SDS011;15940;48.734;9.112;2023-08-24T11:36:42;6.67;;;5.30;;
9524;SDS011;15940;48.734;9.112;2023-08-24T11:39:15;8.00;;;5.13;;
9524;SDS011;15940;48.734;9.112;2023-08-24T11:41:44;8.57;;;5.40;;
9524;SDS011;15940;48.734;9.112;2023-08-24T11:44:13;11.00;;;5.10;;
9524;SDS011;15940;48.734;9.112;2023-08-24T11:46:40;10.23;;;4.97;;
9524;SDS011;15940;48.734;9.112;2023-08-24T11:49:07;7.43;;;5.33;;
9524;SDS011;15940;48.734;9.112;2023-08-24T11:51:36;10.13;;;5.00;;
9524;SDS011;15940;48.734;9.112;2023-08-24T11:54:03;8.90;;;5.00;;
9524;SDS011;15940;48.734;9.112;2023-08-24T11:56:31;8.17;;;5.43;;
9524;SDS011;15940;48.734;9.112;2023-08-24T11:58:58;6.53;;;5.57;;
9524;SDS011;15940;48.734;9.112;2023-08-24T12:01:25;12.97;;;4.87;;
9524;SDS011;15940;48.734;9.112;2023-08-24T12:03:53;15.50;;;5.70;;
9524;SDS011;15940;48.734;9.112;2023-08-24T12:06:20;8.10;;;4.67;;
9524;SDS011;15940;48.734;9.112;2023-08-24T12:08:47;13.20;;;5.87;;
9524;SDS011;15940;48.734;9.112;2023-08-24T12:11:16;8.90;;;5.30;;
9524;SDS011;15940;48.734;9.112;2023-08-24T12:13:48;9.93;;;5.43;;
9524;SDS011;15940;48.734;9.112;2023-08-24T12:16:16;10.63;;;5.40;;
9524;SDS011;15940;48.734;9.112;2023-08-24T12:18:47;7.93;;;5.40;;
9524;SDS011;15940;48.734;9.112;2023-08-24T12:21:17;7.57;;;5.13;;
9524;SDS011;15940;48.734;9.112;2023-08-24T12:23:44;11.23;;;5.60;;
9524;SDS011;15940;48.734;9.112;2023-08-24T12:26:20;5.60;;;5.10;;
9524;SDS011;15940;48.734;9.112;2023-08-24T12:28:51;8.17;;;5.47;;
9524;SDS011;15940;48.734;9.112;2023-08-24T12:31:19;10.07;;;4.97;;
9524;SDS011;15940;48.734;9.112;2023-08-24T12:33:58;9.97;;;5.60;;
9524;SDS011;15940;48.734;9.112;2023-08-24T12:36:26;10.17;;;5.57;;
9524;SDS011;15940;48.734;9.112;2023-08-24T12:38:53;10.43;;;5.13;;
9524;SDS011;15940;48.734;9.112;2023-08-24T12:41:21;10.70;;;5.23;;
9524;SDS011;15940;48.734;9.112;2023-08-24T12:43:48;11.63;;;5.10;;
9524;SDS011;15940;48.734;9.112;2023-08-24T12:46:18;8.97;;;5.10;;
9524;SDS011;15940;48.734;9.112;2023-08-24T12:48:45;8.40;;;5.47;;
9524;SDS011;15940;48.734;9.112;2023-08-24T12:51:12;9.37;;;5.27;;
9524;SDS011;15940;48.734;9.112;2023-08-24T12:53:39;7.60;;;5.37;;
9524;SDS011;15940;48.734;9.112;2023-08-24T12:56:05;11.90;;;5.73;;
9524;SDS011;15940;48.734;9.112;2023-08-24T12:58:32;9.73;;;5.03;;
9524;SDS011;15940;48.734;9.112;2023-08-24T13:01:01;13.97;;;5.43;;
9524;SDS011;15940;48.734;9.112;2023-08-24T13:03:28;10.40;;;5.67;;
9524;SDS011;15940;48.734;9.112;2023-08-24T13:05:55;7.73;;;4.77;;
9524;SDS011;15940;48.734;9.112;2023-08-24T13:08:22;8.40;;;5.03;;
9524;SDS011;15940;48.734;9.112;2023-08-24T13:10:50;8.33;;;5.23;;
9524;SDS011;15940;48.734;9.112;2023-08-24T13:13:18;16.33;;;5.50;;
9524;SDS011;15940;48.734;9.112;2023-08-24T13:15:46;11.93;;;5.13;;
9524;SDS011;15940;48.734;9.112;2023-08-24T13:18:16;13.20;;;4.90;;
9524;SDS011;15940;48.734;9.112;2023-08-24T13:20:44;9.93;;;5.00;;
9524;SDS011;15940;48.734;9.112;2023-08-24T13:23:11;8.80;;;4.73;;
9524;SDS011;15940;48.734;9.112;2023-08-24T13:25:38;9.37;;;5.13;;
9524;SDS011;15940;48.734;9.112;2023-08-24T13:28:05;11.97;;;5.00;;
9524;SDS011;15940;48.734;9.112;2023-08-24T13:30:32;14.70;;;5.47;;
9524;SDS011;15940;48.734;9.112;2023-08-24T13:32:59;9.27;;;5.00;;
9524;SDS011;15940;48.734;9.112;2023-08-24T13:35:28;14.73;;;4.80;;
9524;SDS011;15940;48.734;9.112;2023-08-24T13:37:55;12.43;;;4.90;;
9524;SDS011;15940;48.734;9.112;2023-08-24T13:40:21;8.47;;;4.97;;
9524;SDS011;15940;48.734;9.112;2023-08-24T13:42:48;9.57;;;5.00;;
9524;SDS011;15940;48.734;9.112;2023-08-24T13:45:15;14.20;;;5.17;;
9524;SDS011;15940;48.734;9.112;2023-08-24T13:47:43;7.73;;;5.17;;
9524;SDS011;15940;48.734;9.112;2023-08-24T13:50:12;10.37;;;4.37;;
9524;SDS011;15940;48.734;9.112;2023-08-24T13:52:40;8.80;;;4.87;;
9524;SDS011;15940;48.734;9.112;2023-08-24T13:55:08;10.63;;;4.90;;
9524;SDS011;15940;48.734;9.112;2023-08-24T13:57:35;14.23;;;4.50;;
9524;SDS011;15940;48.734;9.112;2023-08-24T14:00:03;8.03;;;4.47;;
9524;SDS011;15940;48.734;9.112;2023-08-24T14:02:33;13.03;;;4.67;;
9524;SDS011;15940;48.734;9.112;2023-08-24T14:05:00;12.07;;;4.77;;
9524;SDS011;15940;48.734;9.112;2023-08-24T14:07:28;10.53;;;4.17;;
9524;SDS011;15940;48.734;9.112;2023-08-24T14:09:57;9.00;;;5.03;;
9524;SDS011;15940;48.734;9.112;2023-08-24T14:12:36;12.30;;;5.20;;
9524;SDS011;15940;48.734;9.112;2023-08-24T14:15:03;9.80;;;5.00;;
9524;SDS011;15940;48.734;9.112;2023-08-24T14:17:34;13.50;;;4.77;;
9524;SDS011;15940;48.734;9.112;2023-08-24T14:20:05;11.83;;;5.00;;
9524;SDS011;15940;48.734;9.112;2023-08-24T14:22:34;8.83;;;4.70;;
9524;SDS011;15940;48.734;9.112;2023-08-24T14:25:02;10.30;;;5.10;;
9524;SDS011;15940;48.734;9.112;2023-08-24T14:27:30;11.27;;;4.70;;
9524;SDS011;15940;48.734;9.112;2023-08-24T14:29:56;6.00;;;4.27;;
9524;SDS011;15940;48.734;9.112;2023-08-24T14:32:23;10.73;;;4.53;;
9524;SDS011;15940;48.734;9.112;2023-08-24T14:34:50;7.80;;;4.67;;
9524;SDS011;15940;48.734;9.112;2023-08-24T14:37:17;9.60;;;3.90;;
9524;SDS011;15940;48.734;9.112;2023-08-24T14:39:44;11.30;;;4.70;;
9524;SDS011;15940;48.734;9.112;2023-08-24T14:42:12;9.00;;;4.13;;
9524;SDS011;15940;48.734;9.112;2023-08-24T14:44:39;14.93;;;4.47;;
9524;SDS011;15940;48.734;9.112;2023-08-24T14:47:06;8.27;;;4.40;;
9524;SDS011;15940;48.734;9.112;2023-08-24T14:49:32;8.67;;;4.27;;
9524;SDS011;15940;48.734;9.112;2023-08-24T14:52:00;13.37;;;4.67;;
9524;SDS011;15940;48.734;9.112;2023-08-24T14:54:27;11.07;;;4.67;;
9524;SDS011;15940;48.734;9.112;2023-08-24T14:56:54;18.43;;;5.10;;
9524;SDS011;15940;48.734;9.112;2023-08-24T14:59:23;10.00;;;4.70;;
9524;SDS011;15940;48.734;9.112;2023-08-24T15:01:50;21.70;;;5.50;;
9524;SDS011;15940;48.734;9.112;2023-08-24T15:04:17;15.10;;;5.20;;
9524;SDS011;15940;48.734;9.112;2023-08-24T15:06:44;14.63;;;5.33;;